sensor_id;sensor_type;location;lat;lon;timestamp;temperature;humidity
10233;DHT22;5161;48.174;11.756;2023-03-12T00:01:21;3.90;48.90
10233;DHT22;5161;48.174;11.756;2023-03-12T00:03:48;3.90;48.90
10233;DHT22;5161;48.174;11.756;2023-03-12T00:06:14;3.90;48.90
10233;DHT22;5161;48.174;11.756;2023-03-12T00:08:41;3.90;49.00
10233;DHT22;5161;48.174;11.756;2023-03-12T00:11:15;3.90;49.00
10233;DHT22;5161;48.174;11.756;2023-03-12T00:13:42;3.90;49.30
10233;DHT22;5161;48.174;11.756;2023-03-12T00:16:10;3.90;49.30
10233;DHT22;5161;48.174;11.756;2023-03-12T00:18:36;3.80;49.30
10233;DHT22;5161;48.174;11.756;2023-03-12T00:21:02;3.80;49.90
10233;DHT22;5161;48.174;11.756;2023-03-12T00:23:28;3.80;49.60
10233;DHT22;5161;48.174;11.756;2023-03-12T00:25:58;3.80;49.50
10233;DHT22;5161;48.174;11.756;2023-03-12T00:28:24;3.80;49.30
10233;DHT22;5161;48.174;11.756;2023-03-12T00:30:50;3.80;49.60
10233;DHT22;5161;48.174;11.756;2023-03-12T00:33:17;3.80;49.50
10233;DHT22;5161;48.174;11.756;2023-03-12T00:35:43;3.80;49.50
10233;DHT22;5161;48.174;11.756;2023-03-12T00:38:09;3.80;49.60
10233;DHT22;5161;48.174;11.756;2023-03-12T00:40:34;3.80;49.70
10233;DHT22;5161;48.174;11.756;2023-03-12T00:43:00;3.80;49.70
10233;DHT22;5161;48.174;11.756;2023-03-12T00:45:26;3.80;49.80
10233;DHT22;5161;48.174;11.756;2023-03-12T00:47:51;3.80;50.00
10233;DHT22;5161;48.174;11.756;2023-03-12T00:50:17;3.80;49.90
10233;DHT22;5161;48.174;11.756;2023-03-12T00:52:43;3.70;49.70
10233;DHT22;5161;48.174;11.756;2023-03-12T00:55:08;3.70;49.80
10233;DHT22;5161;48.174;11.756;2023-03-12T00:57:34;3.70;50.00
10233;DHT22;5161;48.174;11.756;2023-03-12T00:59:59;3.60;49.90
10233;DHT22;5161;48.174;11.756;2023-03-12T01:02:25;3.60;49.90
10233;DHT22;5161;48.174;11.756;2023-03-12T01:04:51;3.60;49.90
10233;DHT22;5161;48.174;11.756;2023-03-12T01:07:16;3.50;49.90
10233;DHT22;5161;48.174;11.756;2023-03-12T01:09:42;3.60;49.90
10233;DHT22;5161;48.174;11.756;2023-03-12T01:12:08;3.50;49.80
10233;DHT22;5161;48.174;11.756;2023-03-12T01:14:33;3.50;49.80
10233;DHT22;5161;48.174;11.756;2023-03-12T01:16:59;3.50;49.80
10233;DHT22;5161;48.174;11.756;2023-03-12T01:19:24;3.50;50.30
10233;DHT22;5161;48.174;11.756;2023-03-12T01:21:50;3.40;49.80
10233;DHT22;5161;48.174;11.756;2023-03-12T01:24:16;3.40;49.70
10233;DHT22;5161;48.174;11.756;2023-03-12T01:26:42;3.40;49.80
10233;DHT22;5161;48.174;11.756;2023-03-12T01:29:07;3.40;49.90
10233;DHT22;5161;48.174;11.756;2023-03-12T01:31:33;3.30;49.70
10233;DHT22;5161;48.174;11.756;2023-03-12T01:33:59;3.30;49.60
10233;DHT22;5161;48.174;11.756;2023-03-12T01:36:26;3.30;49.80
10233;DHT22;5161;48.174;11.756;2023-03-12T01:38:54;3.30;49.90
10233;DHT22;5161;48.174;11.756;2023-03-12T01:41:21;3.30;49.90
10233;DHT22;5161;48.174;11.756;2023-03-12T01:43:47;3.30;50.00
10233;DHT22;5161;48.174;11.756;2023-03-12T01:46:35;3.30;50.00
10233;DHT22;5161;48.174;11.756;2023-03-12T01:49:14;3.30;50.10
10233;DHT22;5161;48.174;11.756;2023-03-12T01:54:17;3.30;50.20
10233;DHT22;5161;48.174;11.756;2023-03-12T01:56:44;3.30;50.30
10233;DHT22;5161;48.174;11.756;2023-03-12T01:59:21;3.30;50.30
10233;DHT22;5161;48.174;11.756;2023-03-12T02:01:47;3.30;50.40
10233;DHT22;5161;48.174;11.756;2023-03-12T02:04:15;3.30;50.50
10233;DHT22;5161;48.174;11.756;2023-03-12T02:06:47;3.30;50.50
10233;DHT22;5161;48.174;11.756;2023-03-12T02:09:15;3.30;50.50
10233;DHT22;5161;48.174;11.756;2023-03-12T02:11:44;3.30;50.60
10233;DHT22;5161;48.174;11.756;2023-03-12T02:14:10;3.30;50.50
10233;DHT22;5161;48.174;11.756;2023-03-12T02:16:36;3.30;50.50
10233;DHT22;5161;48.174;11.756;2023-03-12T02:19:04;3.30;50.50
10233;DHT22;5161;48.174;11.756;2023-03-12T02:21:34;3.30;50.70
10233;DHT22;5161;48.174;11.756;2023-03-12T02:24:14;3.30;50.60
10233;DHT22;5161;48.174;11.756;2023-03-12T02:26:41;3.30;50.70
10233;DHT22;5161;48.174;11.756;2023-03-12T02:29:08;3.30;50.60
10233;DHT22;5161;48.174;11.756;2023-03-12T02:31:40;3.30;50.80
10233;DHT22;5161;48.174;11.756;2023-03-12T02:34:07;3.30;50.80
10233;DHT22;5161;48.174;11.756;2023-03-12T02:36:34;3.20;50.90
10233;DHT22;5161;48.174;11.756;2023-03-12T02:39:00;3.20;50.90
10233;DHT22;5161;48.174;11.756;2023-03-12T02:41:29;3.30;51.00
10233;DHT22;5161;48.174;11.756;2023-03-12T02:46:38;3.20;50.90
10233;DHT22;5161;48.174;11.756;2023-03-12T02:49:06;3.30;51.00
10233;DHT22;5161;48.174;11.756;2023-03-12T02:51:32;3.20;51.10
10233;DHT22;5161;48.174;11.756;2023-03-12T02:53:57;3.20;51.10
10233;DHT22;5161;48.174;11.756;2023-03-12T02:56:25;3.20;51.20
10233;DHT22;5161;48.174;11.756;2023-03-12T02:58:51;3.20;51.20
10233;DHT22;5161;48.174;11.756;2023-03-12T03:01:18;3.20;51.20
10233;DHT22;5161;48.174;11.756;2023-03-12T03:03:45;3.20;51.10
10233;DHT22;5161;48.174;11.756;2023-03-12T03:06:10;3.20;51.10
10233;DHT22;5161;48.174;11.756;2023-03-12T03:08:36;3.10;51.00
10233;DHT22;5161;48.174;11.756;2023-03-12T03:11:02;3.20;51.20
10233;DHT22;5161;48.174;11.756;2023-03-12T03:13:31;3.10;51.20
10233;DHT22;5161;48.174;11.756;2023-03-12T03:15:57;3.10;51.20
10233;DHT22;5161;48.174;11.756;2023-03-12T03:18:24;3.10;51.20
10233;DHT22;5161;48.174;11.756;2023-03-12T03:20:58;3.10;51.30
10233;DHT22;5161;48.174;11.756;2023-03-12T03:23:24;3.00;51.30
10233;DHT22;5161;48.174;11.756;2023-03-12T03:25:50;3.00;51.50
10233;DHT22;5161;48.174;11.756;2023-03-12T03:28:18;3.00;51.50
10233;DHT22;5161;48.174;11.756;2023-03-12T03:30:43;3.00;51.50
10233;DHT22;5161;48.174;11.756;2023-03-12T03:33:09;3.00;51.50
10233;DHT22;5161;48.174;11.756;2023-03-12T03:35:35;3.00;51.50
10233;DHT22;5161;48.174;11.756;2023-03-12T03:38:00;3.00;51.50
10233;DHT22;5161;48.174;11.756;2023-03-12T03:40:26;3.00;51.80
10233;DHT22;5161;48.174;11.756;2023-03-12T03:42:52;3.10;51.90
10233;DHT22;5161;48.174;11.756;2023-03-12T03:45:17;3.10;51.90
10233;DHT22;5161;48.174;11.756;2023-03-12T03:47:44;3.20;51.80
10233;DHT22;5161;48.174;11.756;2023-03-12T03:50:10;3.20;51.90
10233;DHT22;5161;48.174;11.756;2023-03-12T03:52:36;3.20;52.00
10233;DHT22;5161;48.174;11.756;2023-03-12T03:55:02;3.20;52.10
10233;DHT22;5161;48.174;11.756;2023-03-12T03:57:28;3.20;52.00
10233;DHT22;5161;48.174;11.756;2023-03-12T03:59:54;3.30;52.10
10233;DHT22;5161;48.174;11.756;2023-03-12T04:02:19;3.30;52.10
10233;DHT22;5161;48.174;11.756;2023-03-12T04:04:45;3.30;52.30
10233;DHT22;5161;48.174;11.756;2023-03-12T04:07:10;3.30;52.20
10233;DHT22;5161;48.174;11.756;2023-03-12T04:09:36;3.40;52.30
10233;DHT22;5161;48.174;11.756;2023-03-12T04:12:02;3.40;52.30
10233;DHT22;5161;48.174;11.756;2023-03-12T04:14:27;3.40;52.20
10233;DHT22;5161;48.174;11.756;2023-03-12T04:16:53;3.40;52.20
10233;DHT22;5161;48.174;11.756;2023-03-12T04:19:19;3.40;52.30
10233;DHT22;5161;48.174;11.756;2023-03-12T04:21:44;3.40;52.80
10233;DHT22;5161;48.174;11.756;2023-03-12T04:24:13;3.40;52.50
10233;DHT22;5161;48.174;11.756;2023-03-12T04:26:39;3.50;52.90
10233;DHT22;5161;48.174;11.756;2023-03-12T04:29:05;3.50;52.70
10233;DHT22;5161;48.174;11.756;2023-03-12T04:31:31;3.50;52.70
10233;DHT22;5161;48.174;11.756;2023-03-12T04:33:56;3.50;52.90
10233;DHT22;5161;48.174;11.756;2023-03-12T04:36:22;3.60;53.30
10233;DHT22;5161;48.174;11.756;2023-03-12T04:38:48;3.60;52.90
10233;DHT22;5161;48.174;11.756;2023-03-12T04:41:14;3.60;53.00
10233;DHT22;5161;48.174;11.756;2023-03-12T04:43:41;3.50;53.10
10233;DHT22;5161;48.174;11.756;2023-03-12T04:46:07;3.60;53.20
10233;DHT22;5161;48.174;11.756;2023-03-12T04:48:33;3.60;53.10
10233;DHT22;5161;48.174;11.756;2023-03-12T04:50:59;3.70;53.30
10233;DHT22;5161;48.174;11.756;2023-03-12T04:53:25;3.60;53.60
10233;DHT22;5161;48.174;11.756;2023-03-12T04:55:51;3.70;53.80
10233;DHT22;5161;48.174;11.756;2023-03-12T04:58:17;3.70;53.60
10233;DHT22;5161;48.174;11.756;2023-03-12T05:00:43;3.70;53.90
10233;DHT22;5161;48.174;11.756;2023-03-12T05:03:09;3.80;53.90
10233;DHT22;5161;48.174;11.756;2023-03-12T05:05:35;3.80;53.80
10233;DHT22;5161;48.174;11.756;2023-03-12T05:08:02;3.80;53.90
10233;DHT22;5161;48.174;11.756;2023-03-12T05:10:27;3.80;53.90
10233;DHT22;5161;48.174;11.756;2023-03-12T05:12:53;3.70;53.90
10233;DHT22;5161;48.174;11.756;2023-03-12T05:15:18;3.80;54.00
10233;DHT22;5161;48.174;11.756;2023-03-12T05:17:44;3.80;54.10
10233;DHT22;5161;48.174;11.756;2023-03-12T05:20:10;3.80;54.20
10233;DHT22;5161;48.174;11.756;2023-03-12T05:22:36;3.80;54.10
10233;DHT22;5161;48.174;11.756;2023-03-12T05:25:02;3.90;54.30
10233;DHT22;5161;48.174;11.756;2023-03-12T05:27:27;3.90;54.40
10233;DHT22;5161;48.174;11.756;2023-03-12T05:29:53;3.90;54.40
10233;DHT22;5161;48.174;11.756;2023-03-12T05:32:19;3.90;54.30
10233;DHT22;5161;48.174;11.756;2023-03-12T05:34:44;3.80;54.40
10233;DHT22;5161;48.174;11.756;2023-03-12T05:37:10;3.80;54.60
10233;DHT22;5161;48.174;11.756;2023-03-12T05:39:36;3.80;54.80
10233;DHT22;5161;48.174;11.756;2023-03-12T05:42:02;3.80;54.80
10233;DHT22;5161;48.174;11.756;2023-03-12T05:44:28;3.90;54.90
10233;DHT22;5161;48.174;11.756;2023-03-12T05:46:53;3.90;54.80
10233;DHT22;5161;48.174;11.756;2023-03-12T05:49:20;3.90;54.80
10233;DHT22;5161;48.174;11.756;2023-03-12T05:51:47;3.90;55.00
10233;DHT22;5161;48.174;11.756;2023-03-12T05:54:14;4.00;55.10
10233;DHT22;5161;48.174;11.756;2023-03-12T05:56:39;3.90;55.00
10233;DHT22;5161;48.174;11.756;2023-03-12T05:59:05;4.00;55.40
10233;DHT22;5161;48.174;11.756;2023-03-12T06:01:31;4.10;55.40
10233;DHT22;5161;48.174;11.756;2023-03-12T06:03:59;4.00;55.30
10233;DHT22;5161;48.174;11.756;2023-03-12T06:06:30;4.00;55.60
10233;DHT22;5161;48.174;11.756;2023-03-12T06:09:05;4.00;55.40
10233;DHT22;5161;48.174;11.756;2023-03-12T06:11:44;4.10;55.60
10233;DHT22;5161;48.174;11.756;2023-03-12T06:14:12;4.00;55.50
10233;DHT22;5161;48.174;11.756;2023-03-12T06:16:39;4.00;55.90
10233;DHT22;5161;48.174;11.756;2023-03-12T06:19:04;4.10;56.00
10233;DHT22;5161;48.174;11.756;2023-03-12T06:21:33;4.10;56.20
10233;DHT22;5161;48.174;11.756;2023-03-12T06:23:59;4.20;56.30
10233;DHT22;5161;48.174;11.756;2023-03-12T06:26:26;4.20;56.30
10233;DHT22;5161;48.174;11.756;2023-03-12T06:28:52;4.30;56.40
10233;DHT22;5161;48.174;11.756;2023-03-12T06:31:19;4.20;56.40
10233;DHT22;5161;48.174;11.756;2023-03-12T06:33:45;4.30;56.50
10233;DHT22;5161;48.174;11.756;2023-03-12T06:36:11;4.40;56.80
10233;DHT22;5161;48.174;11.756;2023-03-12T06:38:37;4.40;56.50
10233;DHT22;5161;48.174;11.756;2023-03-12T06:41:14;4.40;56.60
10233;DHT22;5161;48.174;11.756;2023-03-12T06:43:41;4.50;57.00
10233;DHT22;5161;48.174;11.756;2023-03-12T06:46:10;4.50;57.00
10233;DHT22;5161;48.174;11.756;2023-03-12T06:48:36;4.50;57.00
10233;DHT22;5161;48.174;11.756;2023-03-12T06:51:06;4.50;56.80
10233;DHT22;5161;48.174;11.756;2023-03-12T06:53:32;4.50;56.90
10233;DHT22;5161;48.174;11.756;2023-03-12T06:55:58;4.50;57.10
10233;DHT22;5161;48.174;11.756;2023-03-12T06:58:24;4.50;57.10
10233;DHT22;5161;48.174;11.756;2023-03-12T07:00:50;4.60;57.20
10233;DHT22;5161;48.174;11.756;2023-03-12T07:03:15;4.60;57.10
10233;DHT22;5161;48.174;11.756;2023-03-12T07:05:45;4.60;57.50
10233;DHT22;5161;48.174;11.756;2023-03-12T07:08:12;4.60;57.60
10233;DHT22;5161;48.174;11.756;2023-03-12T07:10:37;4.70;57.50
10233;DHT22;5161;48.174;11.756;2023-03-12T07:13:03;4.70;57.50
10233;DHT22;5161;48.174;11.756;2023-03-12T07:15:29;4.80;57.60
10233;DHT22;5161;48.174;11.756;2023-03-12T07:17:54;4.80;57.70
10233;DHT22;5161;48.174;11.756;2023-03-12T07:20:20;4.80;57.80
10233;DHT22;5161;48.174;11.756;2023-03-12T07:22:45;4.80;58.20
10233;DHT22;5161;48.174;11.756;2023-03-12T07:25:11;4.80;58.00
10233;DHT22;5161;48.174;11.756;2023-03-12T07:27:37;4.80;58.10
10233;DHT22;5161;48.174;11.756;2023-03-12T07:30:03;4.90;58.60
10233;DHT22;5161;48.174;11.756;2023-03-12T07:32:29;4.80;58.30
10233;DHT22;5161;48.174;11.756;2023-03-12T07:34:55;4.80;58.30
10233;DHT22;5161;48.174;11.756;2023-03-12T07:37:20;4.80;58.40
10233;DHT22;5161;48.174;11.756;2023-03-12T07:39:46;4.90;58.90
10233;DHT22;5161;48.174;11.756;2023-03-12T07:42:15;4.90;58.70
10233;DHT22;5161;48.174;11.756;2023-03-12T07:44:41;4.90;58.80
10233;DHT22;5161;48.174;11.756;2023-03-12T07:47:06;5.00;58.90
10233;DHT22;5161;48.174;11.756;2023-03-12T07:49:32;5.00;59.10
10233;DHT22;5161;48.174;11.756;2023-03-12T07:51:58;5.10;59.20
10233;DHT22;5161;48.174;11.756;2023-03-12T07:54:24;5.20;59.20
10233;DHT22;5161;48.174;11.756;2023-03-12T07:56:57;5.30;59.50
10233;DHT22;5161;48.174;11.756;2023-03-12T07:59:26;5.50;59.70
10233;DHT22;5161;48.174;11.756;2023-03-12T08:01:52;5.50;59.70
10233;DHT22;5161;48.174;11.756;2023-03-12T08:04:18;5.50;59.70
10233;DHT22;5161;48.174;11.756;2023-03-12T08:06:44;5.50;59.50
10233;DHT22;5161;48.174;11.756;2023-03-12T08:09:10;5.60;60.00
10233;DHT22;5161;48.174;11.756;2023-03-12T08:11:35;5.60;60.00
10233;DHT22;5161;48.174;11.756;2023-03-12T08:14:02;5.60;60.10
10233;DHT22;5161;48.174;11.756;2023-03-12T08:16:28;5.60;60.10
10233;DHT22;5161;48.174;11.756;2023-03-12T08:18:54;5.70;60.40
10233;DHT22;5161;48.174;11.756;2023-03-12T08:21:20;5.70;60.70
10233;DHT22;5161;48.174;11.756;2023-03-12T08:23:46;5.60;60.40
10233;DHT22;5161;48.174;11.756;2023-03-12T08:26:12;5.60;60.60
10233;DHT22;5161;48.174;11.756;2023-03-12T08:28:37;5.60;60.70
10233;DHT22;5161;48.174;11.756;2023-03-12T08:31:04;5.70;61.00
10233;DHT22;5161;48.174;11.756;2023-03-12T08:33:30;5.70;61.00
10233;DHT22;5161;48.174;11.756;2023-03-12T08:35:58;5.70;61.20
10233;DHT22;5161;48.174;11.756;2023-03-12T08:38:24;5.60;61.10
10233;DHT22;5161;48.174;11.756;2023-03-12T08:40:59;5.60;61.30
10233;DHT22;5161;48.174;11.756;2023-03-12T08:43:26;5.70;61.60
10233;DHT22;5161;48.174;11.756;2023-03-12T08:46:02;5.70;61.60
10233;DHT22;5161;48.174;11.756;2023-03-12T08:48:30;5.80;62.20
10233;DHT22;5161;48.174;11.756;2023-03-12T08:50:56;5.90;62.40
10233;DHT22;5161;48.174;11.756;2023-03-12T08:53:23;5.80;61.50
10233;DHT22;5161;48.174;11.756;2023-03-12T08:55:52;5.80;61.90
10233;DHT22;5161;48.174;11.756;2023-03-12T08:58:18;5.80;62.00
10233;DHT22;5161;48.174;11.756;2023-03-12T09:00:44;5.90;62.00
10233;DHT22;5161;48.174;11.756;2023-03-12T09:03:10;5.90;62.00
10233;DHT22;5161;48.174;11.756;2023-03-12T09:05:42;5.90;62.20
10233;DHT22;5161;48.174;11.756;2023-03-12T09:08:09;6.00;62.00
10233;DHT22;5161;48.174;11.756;2023-03-12T09:10:36;6.00;62.10
10233;DHT22;5161;48.174;11.756;2023-03-12T09:13:03;6.00;62.60
10233;DHT22;5161;48.174;11.756;2023-03-12T09:15:29;6.00;62.10
10233;DHT22;5161;48.174;11.756;2023-03-12T09:17:55;6.00;62.40
10233;DHT22;5161;48.174;11.756;2023-03-12T09:20:21;6.00;62.40
10233;DHT22;5161;48.174;11.756;2023-03-12T09:22:47;6.00;62.40
10233;DHT22;5161;48.174;11.756;2023-03-12T09:25:13;6.00;62.50
10233;DHT22;5161;48.174;11.756;2023-03-12T09:27:42;6.00;62.60
10233;DHT22;5161;48.174;11.756;2023-03-12T09:30:13;6.00;62.80
10233;DHT22;5161;48.174;11.756;2023-03-12T09:32:39;6.00;62.80
10233;DHT22;5161;48.174;11.756;2023-03-12T09:35:05;6.00;62.80
10233;DHT22;5161;48.174;11.756;2023-03-12T09:37:31;6.00;63.80
10233;DHT22;5161;48.174;11.756;2023-03-12T09:39:57;6.10;63.90
10233;DHT22;5161;48.174;11.756;2023-03-12T09:42:47;6.00;64.00
10233;DHT22;5161;48.174;11.756;2023-03-12T09:45:19;6.00;64.80
10233;DHT22;5161;48.174;11.756;2023-03-12T09:47:48;6.00;65.30
10233;DHT22;5161;48.174;11.756;2023-03-12T09:52:57;6.10;66.00
10233;DHT22;5161;48.174;11.756;2023-03-12T09:55:26;6.10;67.50
10233;DHT22;5161;48.174;11.756;2023-03-12T09:57:53;6.00;65.20
10233;DHT22;5161;48.174;11.756;2023-03-12T10:00:21;6.10;65.50
10233;DHT22;5161;48.174;11.756;2023-03-12T10:08:24;6.10;67.50
10233;DHT22;5161;48.174;11.756;2023-03-12T10:13:32;6.10;66.80
10233;DHT22;5161;48.174;11.756;2023-03-12T10:21:57;6.00;68.70
10233;DHT22;5161;48.174;11.756;2023-03-12T10:26:57;5.90;69.30
10233;DHT22;5161;48.174;11.756;2023-03-12T10:29:31;6.00;70.00
10233;DHT22;5161;48.174;11.756;2023-03-12T10:32:12;5.90;69.10
10233;DHT22;5161;48.174;11.756;2023-03-12T10:37:25;6.00;69.80
10233;DHT22;5161;48.174;11.756;2023-03-12T10:39:53;6.00;70.50
10233;DHT22;5161;48.174;11.756;2023-03-12T10:42:25;5.90;69.50
10233;DHT22;5161;48.174;11.756;2023-03-12T10:44:57;6.00;69.60
10233;DHT22;5161;48.174;11.756;2023-03-12T10:49:52;5.90;70.50
10233;DHT22;5161;48.174;11.756;2023-03-12T10:52:20;5.80;70.90
10233;DHT22;5161;48.174;11.756;2023-03-12T10:54:51;5.70;70.30
10233;DHT22;5161;48.174;11.756;2023-03-12T10:57:17;5.60;69.80
10233;DHT22;5161;48.174;11.756;2023-03-12T10:59:46;5.60;70.10
10233;DHT22;5161;48.174;11.756;2023-03-12T11:02:34;5.50;69.00
10233;DHT22;5161;48.174;11.756;2023-03-12T11:06:09;5.40;70.40
10233;DHT22;5161;48.174;11.756;2023-03-12T11:08:11;5.40;70.60
10233;DHT22;5161;48.174;11.756;2023-03-12T11:10:45;5.50;70.10
10233;DHT22;5161;48.174;11.756;2023-03-12T11:13:30;5.50;69.90
10233;DHT22;5161;48.174;11.756;2023-03-12T11:16:02;5.60;69.50
10233;DHT22;5161;48.174;11.756;2023-03-12T11:18:55;5.60;70.30
10233;DHT22;5161;48.174;11.756;2023-03-12T11:21:24;5.60;70.20
10233;DHT22;5161;48.174;11.756;2023-03-12T11:29:31;5.80;69.90
10233;DHT22;5161;48.174;11.756;2023-03-12T11:32:24;5.80;71.70
10233;DHT22;5161;48.174;11.756;2023-03-12T11:34:54;5.90;70.30
10233;DHT22;5161;48.174;11.756;2023-03-12T11:38:17;5.90;72.40
10233;DHT22;5161;48.174;11.756;2023-03-12T11:43:46;5.90;71.40
10233;DHT22;5161;48.174;11.756;2023-03-12T11:47:02;5.90;70.20
10233;DHT22;5161;48.174;11.756;2023-03-12T11:49:35;5.90;71.30
10233;DHT22;5161;48.174;11.756;2023-03-12T12:08:23;6.20;72.60
10233;DHT22;5161;48.174;11.756;2023-03-12T12:11:02;6.20;73.40
10233;DHT22;5161;48.174;11.756;2023-03-12T12:30:39;6.30;74.50
10233;DHT22;5161;48.174;11.756;2023-03-12T12:35:54;6.40;75.10
10233;DHT22;5161;48.174;11.756;2023-03-12T12:38:41;6.40;74.70
10233;DHT22;5161;48.174;11.756;2023-03-12T12:41:23;6.40;73.60
10233;DHT22;5161;48.174;11.756;2023-03-12T12:43:56;6.50;75.70
10233;DHT22;5161;48.174;11.756;2023-03-12T12:46:36;6.50;74.90
10233;DHT22;5161;48.174;11.756;2023-03-12T12:49:23;6.50;76.10
10233;DHT22;5161;48.174;11.756;2023-03-12T12:51:54;6.50;75.30
10233;DHT22;5161;48.174;11.756;2023-03-12T12:57:17;6.60;76.40
10233;DHT22;5161;48.174;11.756;2023-03-12T13:02:18;6.60;76.00
10233;DHT22;5161;48.174;11.756;2023-03-12T13:04:45;6.60;76.20
10233;DHT22;5161;48.174;11.756;2023-03-12T13:09:56;6.70;76.60
10233;DHT22;5161;48.174;11.756;2023-03-12T13:12:46;6.80;77.30
10233;DHT22;5161;48.174;11.756;2023-03-12T13:15:40;6.80;77.90
10233;DHT22;5161;48.174;11.756;2023-03-12T13:18:22;6.90;77.80
10233;DHT22;5161;48.174;11.756;2023-03-12T13:26:45;7.00;78.10
10233;DHT22;5161;48.174;11.756;2023-03-12T13:29:22;7.10;78.50
10233;DHT22;5161;48.174;11.756;2023-03-12T13:32:00;7.10;78.50
10233;DHT22;5161;48.174;11.756;2023-03-12T13:36:57;7.20;78.60
10233;DHT22;5161;48.174;11.756;2023-03-12T13:39:32;7.30;78.40
10233;DHT22;5161;48.174;11.756;2023-03-12T13:41:59;7.40;79.40
10233;DHT22;5161;48.174;11.756;2023-03-12T13:49:51;7.50;79.90
10233;DHT22;5161;48.174;11.756;2023-03-12T14:03:20;7.80;83.80
10233;DHT22;5161;48.174;11.756;2023-03-12T14:16:41;8.00;83.60
10233;DHT22;5161;48.174;11.756;2023-03-12T14:19:11;8.10;82.60
10233;DHT22;5161;48.174;11.756;2023-03-12T14:21:38;8.10;83.00
10233;DHT22;5161;48.174;11.756;2023-03-12T14:24:07;8.30;84.50
10233;DHT22;5161;48.174;11.756;2023-03-12T14:26:38;8.30;84.50
10233;DHT22;5161;48.174;11.756;2023-03-12T14:29:25;8.50;86.00
10233;DHT22;5161;48.174;11.756;2023-03-12T14:31:55;8.50;85.70
10233;DHT22;5161;48.174;11.756;2023-03-12T14:34:23;8.50;86.50
10233;DHT22;5161;48.174;11.756;2023-03-12T14:37:22;8.50;86.00
10233;DHT22;5161;48.174;11.756;2023-03-12T14:39:53;8.50;86.70
10233;DHT22;5161;48.174;11.756;2023-03-12T14:42:23;8.50;85.40
10233;DHT22;5161;48.174;11.756;2023-03-12T14:45:08;8.70;87.10
10233;DHT22;5161;48.174;11.756;2023-03-12T14:47:46;8.90;87.20
10233;DHT22;5161;48.174;11.756;2023-03-12T14:50:25;8.90;86.90
10233;DHT22;5161;48.174;11.756;2023-03-12T14:52:52;8.90;86.40
10233;DHT22;5161;48.174;11.756;2023-03-12T14:55:23;8.90;87.10
10233;DHT22;5161;48.174;11.756;2023-03-12T14:57:49;8.90;87.00
10233;DHT22;5161;48.174;11.756;2023-03-12T15:00:27;8.90;87.30
10233;DHT22;5161;48.174;11.756;2023-03-12T15:02:55;8.90;87.10
10233;DHT22;5161;48.174;11.756;2023-03-12T15:05:22;8.90;86.70
10233;DHT22;5161;48.174;11.756;2023-03-12T15:07:49;9.00;87.00
10233;DHT22;5161;48.174;11.756;2023-03-12T15:10:23;9.00;87.20
10233;DHT22;5161;48.174;11.756;2023-03-12T15:12:50;9.00;86.80
10233;DHT22;5161;48.174;11.756;2023-03-12T15:15:41;9.00;86.50
10233;DHT22;5161;48.174;11.756;2023-03-12T15:18:17;9.00;86.70
10233;DHT22;5161;48.174;11.756;2023-03-12T15:20:44;9.00;86.60
10233;DHT22;5161;48.174;11.756;2023-03-12T15:23:12;9.00;86.40
10233;DHT22;5161;48.174;11.756;2023-03-12T15:25:38;9.00;86.90
10233;DHT22;5161;48.174;11.756;2023-03-12T15:30:39;8.90;86.90
10233;DHT22;5161;48.174;11.756;2023-03-12T15:33:11;8.90;86.80
10233;DHT22;5161;48.174;11.756;2023-03-12T15:35:40;8.90;86.80
10233;DHT22;5161;48.174;11.756;2023-03-12T15:38:13;8.80;86.40
10233;DHT22;5161;48.174;11.756;2023-03-12T15:40:39;8.80;87.00
10233;DHT22;5161;48.174;11.756;2023-03-12T15:43:14;8.80;86.70
10233;DHT22;5161;48.174;11.756;2023-03-12T15:45:42;8.70;87.70
10233;DHT22;5161;48.174;11.756;2023-03-12T15:50:51;8.70;87.50
10233;DHT22;5161;48.174;11.756;2023-03-12T15:56:19;8.80;88.00
10233;DHT22;5161;48.174;11.756;2023-03-12T15:58:45;8.80;88.40
10233;DHT22;5161;48.174;11.756;2023-03-12T16:01:17;8.70;87.90
10233;DHT22;5161;48.174;11.756;2023-03-12T16:03:48;8.80;88.20
10233;DHT22;5161;48.174;11.756;2023-03-12T16:06:16;8.80;89.10
10233;DHT22;5161;48.174;11.756;2023-03-12T16:08:49;8.90;89.40
10233;DHT22;5161;48.174;11.756;2023-03-12T16:11:18;8.80;89.70
10233;DHT22;5161;48.174;11.756;2023-03-12T16:13:46;8.90;89.60
10233;DHT22;5161;48.174;11.756;2023-03-12T16:16:13;8.90;90.00
10233;DHT22;5161;48.174;11.756;2023-03-12T16:18:40;8.80;90.00
10233;DHT22;5161;48.174;11.756;2023-03-12T16:21:06;8.90;89.50
10233;DHT22;5161;48.174;11.756;2023-03-12T16:23:32;8.90;89.70
10233;DHT22;5161;48.174;11.756;2023-03-12T16:25:58;8.80;89.90
10233;DHT22;5161;48.174;11.756;2023-03-12T16:28:24;8.90;89.80
10233;DHT22;5161;48.174;11.756;2023-03-12T16:30:50;8.90;89.80
10233;DHT22;5161;48.174;11.756;2023-03-12T16:33:21;8.90;90.10
10233;DHT22;5161;48.174;11.756;2023-03-12T16:35:47;9.00;90.00
10233;DHT22;5161;48.174;11.756;2023-03-12T16:38:13;9.00;89.80
10233;DHT22;5161;48.174;11.756;2023-03-12T16:40:42;9.00;89.90
10233;DHT22;5161;48.174;11.756;2023-03-12T16:43:15;9.00;90.00
10233;DHT22;5161;48.174;11.756;2023-03-12T16:45:44;9.00;89.70
10233;DHT22;5161;48.174;11.756;2023-03-12T16:48:14;9.00;89.80
10233;DHT22;5161;48.174;11.756;2023-03-12T16:50:40;9.00;89.60
10233;DHT22;5161;48.174;11.756;2023-03-12T16:53:10;9.00;89.90
10233;DHT22;5161;48.174;11.756;2023-03-12T16:55:44;9.00;89.60
10233;DHT22;5161;48.174;11.756;2023-03-12T16:58:12;9.00;89.60
10233;DHT22;5161;48.174;11.756;2023-03-12T17:00:39;9.00;89.50
10233;DHT22;5161;48.174;11.756;2023-03-12T17:03:05;9.00;89.50
10233;DHT22;5161;48.174;11.756;2023-03-12T17:05:31;9.00;89.40
10233;DHT22;5161;48.174;11.756;2023-03-12T17:07:57;9.00;89.30
10233;DHT22;5161;48.174;11.756;2023-03-12T17:10:24;9.00;88.70
10233;DHT22;5161;48.174;11.756;2023-03-12T17:12:50;8.90;88.70
10233;DHT22;5161;48.174;11.756;2023-03-12T17:15:19;9.00;88.80
10233;DHT22;5161;48.174;11.756;2023-03-12T17:17:46;8.90;88.70
10233;DHT22;5161;48.174;11.756;2023-03-12T17:20:14;9.00;88.70
10233;DHT22;5161;48.174;11.756;2023-03-12T17:22:40;9.00;88.40
10233;DHT22;5161;48.174;11.756;2023-03-12T17:25:09;9.00;88.60
10233;DHT22;5161;48.174;11.756;2023-03-12T17:27:37;9.00;88.20
10233;DHT22;5161;48.174;11.756;2023-03-12T17:30:03;8.90;88.00
10233;DHT22;5161;48.174;11.756;2023-03-12T17:32:29;8.90;88.10
10233;DHT22;5161;48.174;11.756;2023-03-12T17:34:56;8.90;87.90
10233;DHT22;5161;48.174;11.756;2023-03-12T17:37:22;8.90;87.70
10233;DHT22;5161;48.174;11.756;2023-03-12T17:39:47;8.80;87.70
10233;DHT22;5161;48.174;11.756;2023-03-12T17:42:13;8.90;87.80
10233;DHT22;5161;48.174;11.756;2023-03-12T17:44:38;8.80;87.50
10233;DHT22;5161;48.174;11.756;2023-03-12T17:47:04;8.80;87.20
10233;DHT22;5161;48.174;11.756;2023-03-12T17:49:30;8.80;87.50
10233;DHT22;5161;48.174;11.756;2023-03-12T17:51:55;8.80;87.10
10233;DHT22;5161;48.174;11.756;2023-03-12T17:54:21;8.70;86.90
10233;DHT22;5161;48.174;11.756;2023-03-12T17:56:47;8.70;87.00
10233;DHT22;5161;48.174;11.756;2023-03-12T17:59:13;8.70;86.80
10233;DHT22;5161;48.174;11.756;2023-03-12T18:01:38;8.70;87.10